createdAt,value
2023-02-12T00:02:16.047Z,5.28
2023-02-12T00:04:42.269Z,5.75
2023-02-12T00:07:08.488Z,6.05
2023-02-12T00:09:34.698Z,6.05
2023-02-12T00:12:00.909Z,5.80
2023-02-12T00:14:27.140Z,5.95
2023-02-12T00:16:53.364Z,5.70
2023-02-12T00:19:19.549Z,5.50
2023-02-12T00:21:45.766Z,5.70
2023-02-12T00:24:11.971Z,6.28
2023-02-12T00:26:38.218Z,5.70
2023-02-12T00:29:04.416Z,7.55
2023-02-12T00:31:30.663Z,6.60
2023-02-12T00:33:56.896Z,7.53
2023-02-12T00:36:23.098Z,7.82
2023-02-12T00:38:49.275Z,8.38
2023-02-12T00:41:15.468Z,7.97
2023-02-12T00:43:41.700Z,6.65
2023-02-12T00:46:07.956Z,7.55
2023-02-12T00:48:34.229Z,7.10
2023-02-12T00:51:00.379Z,6.70
2023-02-12T00:53:26.620Z,6.22
2023-02-12T00:55:53.210Z,6.55
2023-02-12T00:58:19.648Z,7.05
2023-02-12T01:00:45.849Z,6.78
2023-02-12T01:03:12.098Z,7.00
2023-02-12T01:05:38.276Z,7.63
2023-02-12T01:08:04.440Z,7.25
2023-02-12T01:10:30.651Z,7.47
2023-02-12T01:12:56.825Z,7.35
2023-02-12T01:15:23.040Z,6.05
2023-02-12T01:17:49.302Z,6.32
2023-02-12T01:20:15.528Z,5.68
2023-02-12T01:22:41.735Z,5.85
2023-02-12T01:25:07.964Z,5.38
2023-02-12T01:27:34.127Z,4.95
2023-02-12T01:30:00.338Z,6.22
2023-02-12T01:32:26.518Z,5.57
2023-02-12T01:34:52.710Z,6.20
2023-02-12T01:37:18.871Z,6.05
2023-02-12T01:39:45.087Z,5.93
2023-02-12T01:42:11.300Z,6.82
2023-02-12T01:44:37.530Z,6.35
2023-02-12T01:47:03.723Z,5.85
2023-02-12T01:49:29.950Z,5.32
2023-02-12T01:51:56.218Z,3.25
2023-02-12T01:54:22.461Z,3.75
2023-02-12T01:56:48.703Z,3.08
2023-02-12T01:59:14.877Z,2.85
2023-02-12T02:01:41.132Z,2.65
2023-02-12T02:04:07.311Z,2.05
2023-02-12T02:06:33.504Z,2.25
2023-02-12T02:08:59.669Z,1.98
2023-02-12T02:11:26.007Z,2.33
2023-02-12T02:13:52.178Z,1.90
2023-02-12T02:16:18.376Z,2.08
2023-02-12T02:18:44.568Z,2.03
2023-02-12T02:21:10.778Z,2.53
2023-02-12T02:23:36.946Z,2.28
2023-02-12T02:26:03.156Z,1.70
2023-02-12T02:28:29.356Z,1.52
2023-02-12T02:30:55.677Z,1.83
2023-02-12T02:33:21.901Z,1.13
2023-02-12T02:35:48.107Z,1.35
2023-02-12T02:38:14.400Z,1.48
2023-02-12T02:40:40.621Z,1.13
2023-02-12T02:43:06.809Z,1.35
2023-02-12T02:45:33.033Z,1.10
2023-02-12T02:47:59.220Z,1.08
2023-02-12T02:50:25.524Z,1.08
2023-02-12T02:52:51.700Z,0.98
2023-02-12T02:55:17.902Z,1.40
2023-02-12T02:57:44.070Z,1.00
2023-02-12T03:00:10.231Z,1.83
2023-02-12T03:02:36.502Z,1.40
2023-02-12T03:05:02.722Z,1.25
2023-02-12T03:07:28.958Z,1.15
2023-02-12T03:09:55.148Z,1.35
2023-02-12T03:12:21.310Z,1.42
2023-02-12T03:14:47.517Z,1.20
2023-02-12T03:17:13.705Z,0.95
2023-02-12T03:19:39.903Z,1.27
2023-02-12T03:22:06.077Z,1.58
2023-02-12T03:24:32.303Z,1.48
2023-02-12T03:26:58.467Z,1.20
2023-02-12T03:29:24.676Z,1.73
2023-02-12T03:31:50.972Z,1.33
2023-02-12T03:34:17.208Z,1.20
2023-02-12T03:36:43.382Z,1.40
2023-02-12T03:39:09.535Z,1.45
2023-02-12T03:41:35.722Z,1.48
2023-02-12T03:44:01.921Z,2.00
2023-02-12T03:46:28.135Z,2.05
2023-02-12T03:48:54.310Z,1.98
2023-02-12T03:51:20.517Z,1.80
2023-02-12T03:53:46.734Z,1.65
2023-02-12T03:56:12.970Z,2.42
2023-02-12T03:58:39.193Z,2.00
2023-02-12T04:01:05.437Z,2.00
2023-02-12T04:03:31.762Z,2.45
2023-02-12T04:05:57.963Z,2.42
2023-02-12T04:08:24.133Z,2.40
2023-02-12T04:10:50.382Z,2.50
2023-02-12T04:13:16.587Z,2.42
2023-02-12T04:15:42.768Z,1.80
2023-02-12T04:18:09.136Z,1.85
2023-02-12T04:20:35.629Z,2.50
2023-02-12T04:23:01.837Z,2.20
2023-02-12T04:25:28.005Z,2.38
2023-02-12T04:27:54.162Z,2.58
2023-02-12T04:30:20.371Z,2.92
2023-02-12T04:32:46.545Z,2.25
2023-02-12T04:35:12.722Z,2.00
2023-02-12T04:37:38.893Z,3.20
2023-02-12T04:40:05.110Z,2.78
2023-02-12T04:42:31.348Z,2.72
2023-02-12T04:44:57.570Z,3.22
2023-02-12T04:47:23.813Z,2.95
2023-02-12T04:49:50.026Z,3.00
2023-02-12T04:52:16.257Z,3.38
2023-02-12T04:54:42.419Z,3.38
2023-02-12T04:57:08.572Z,2.20
2023-02-12T04:59:34.802Z,2.38
2023-02-12T05:02:00.997Z,3.05
2023-02-12T05:04:27.212Z,3.03
2023-02-12T05:06:53.448Z,2.65
2023-02-12T05:09:19.665Z,3.05
2023-02-12T05:11:45.859Z,3.25
2023-02-12T05:14:12.106Z,2.92
2023-02-12T05:16:38.343Z,2.97
2023-02-12T05:19:04.581Z,2.50
2023-02-12T05:21:30.810Z,2.38
2023-02-12T05:23:57.045Z,2.40
2023-02-12T05:26:23.245Z,2.80
2023-02-12T05:28:49.447Z,2.88
2023-02-12T05:31:15.795Z,2.65
2023-02-12T05:33:42.131Z,2.58
2023-02-12T05:36:08.357Z,2.47
2023-02-12T05:38:34.560Z,2.15
2023-02-12T05:41:00.807Z,2.35
2023-02-12T05:43:27.014Z,2.38
2023-02-12T05:45:53.621Z,1.95
2023-02-12T05:48:20.015Z,2.03
2023-02-12T05:50:46.234Z,1.73
2023-02-12T05:53:12.413Z,2.05
2023-02-12T05:55:38.635Z,2.30
2023-02-12T05:58:04.948Z,2.03
2023-02-12T06:00:31.166Z,2.15
2023-02-12T06:02:57.473Z,1.90
2023-02-12T06:05:23.665Z,2.10
2023-02-12T06:07:49.855Z,2.42
2023-02-12T06:10:16.075Z,2.67
2023-02-12T06:12:42.263Z,2.90
2023-02-12T06:15:08.483Z,2.63
2023-02-12T06:17:34.664Z,2.50
2023-02-12T06:20:00.880Z,3.03
2023-02-12T06:22:27.118Z,3.63
2023-02-12T06:24:53.288Z,2.50
2023-02-12T06:27:19.495Z,3.15
2023-02-12T06:29:45.692Z,3.00
2023-02-12T06:32:11.921Z,2.70
2023-02-12T06:34:38.205Z,2.85
2023-02-12T06:37:04.438Z,3.08
2023-02-12T06:39:30.678Z,2.53
2023-02-12T06:41:56.856Z,2.38
2023-02-12T06:44:23.028Z,2.60
2023-02-12T06:46:49.286Z,2.47
2023-02-12T06:49:15.518Z,2.13
2023-02-12T06:51:41.673Z,3.03
2023-02-12T06:54:07.916Z,2.42
2023-02-12T06:56:34.087Z,2.83
2023-02-12T06:59:00.322Z,3.08
2023-02-12T07:01:26.556Z,2.92
2023-02-12T07:03:52.783Z,2.60
2023-02-12T07:06:18.951Z,2.88
2023-02-12T07:08:45.182Z,2.83
2023-02-12T07:11:11.349Z,2.80
2023-02-12T07:13:37.529Z,2.55
2023-02-12T07:16:03.793Z,3.63
2023-02-12T07:18:30.016Z,3.15
2023-02-12T07:20:56.212Z,2.83
2023-02-12T07:23:22.440Z,3.05
2023-02-12T07:25:48.687Z,2.92
2023-02-12T07:28:15.028Z,2.80
2023-02-12T07:30:42.786Z,2.30
2023-02-12T07:33:09.086Z,2.95
2023-02-12T07:35:35.257Z,2.92
2023-02-12T07:38:01.476Z,2.97
2023-02-12T07:40:27.796Z,2.40
2023-02-12T07:42:54.019Z,2.67
2023-02-12T07:45:20.251Z,2.88
2023-02-12T07:47:46.436Z,3.78
2023-02-12T07:50:12.666Z,3.08
2023-02-12T07:52:39.005Z,3.28
2023-02-12T07:55:05.177Z,3.25
2023-02-12T07:57:31.342Z,3.00
2023-02-12T07:59:57.565Z,6.35
2023-02-12T08:02:23.784Z,3.28
2023-02-12T08:04:50.074Z,3.83
2023-02-12T08:07:16.314Z,3.22
2023-02-12T08:09:42.574Z,3.33
2023-02-12T08:12:08.760Z,3.42
2023-02-12T08:14:34.984Z,4.18
2023-02-12T08:17:01.293Z,3.58
2023-02-12T08:19:27.536Z,4.13
2023-02-12T08:21:53.735Z,3.45
2023-02-12T08:24:19.964Z,3.47
2023-02-12T08:26:46.178Z,2.83
2023-02-12T08:29:12.361Z,2.88
2023-02-12T08:31:38.610Z,3.85
2023-02-12T08:34:04.869Z,2.67
2023-02-12T08:36:31.110Z,2.80
2023-02-12T08:38:57.339Z,3.80
2023-02-12T08:41:23.585Z,3.53
2023-02-12T08:43:49.797Z,2.47
2023-02-12T08:46:16.042Z,2.67
2023-02-12T08:48:42.302Z,2.53
2023-02-12T08:51:08.485Z,2.10
2023-02-12T08:53:34.649Z,2.58
2023-02-12T08:56:00.856Z,2.08
2023-02-12T08:58:27.065Z,2.47
2023-02-12T09:00:53.249Z,2.67
2023-02-12T09:03:19.538Z,1.80
2023-02-12T09:05:45.749Z,2.78
2023-02-12T09:08:11.936Z,1.90
2023-02-12T09:10:38.184Z,1.92
2023-02-12T09:13:04.344Z,1.40
2023-02-12T09:15:30.554Z,1.63
2023-02-12T09:17:56.802Z,1.50
2023-02-12T09:20:22.971Z,1.10
2023-02-12T09:22:49.152Z,1.33
2023-02-12T09:25:15.310Z,1.05
2023-02-12T09:27:41.530Z,1.58
2023-02-12T09:30:07.748Z,1.48
2023-02-12T09:32:33.992Z,1.90
2023-02-12T09:35:00.158Z,2.13
2023-02-12T09:37:26.309Z,1.92
2023-02-12T09:39:52.525Z,1.33
2023-02-12T09:42:18.761Z,1.33
2023-02-12T09:44:44.983Z,1.25
2023-02-12T09:47:11.259Z,1.58
2023-02-12T09:49:37.435Z,1.83
2023-02-12T09:52:03.645Z,1.83
2023-02-12T09:54:29.816Z,2.13
2023-02-12T09:56:56.040Z,1.83
2023-02-12T09:59:22.268Z,1.88
2023-02-12T10:01:48.523Z,2.22
2023-02-12T10:04:14.747Z,1.33
2023-02-12T10:06:40.976Z,1.60
2023-02-12T10:09:07.156Z,1.27
2023-02-12T10:11:33.351Z,1.45
2023-02-12T10:13:59.512Z,2.28
2023-02-12T10:16:25.688Z,1.58
2023-02-12T10:18:51.889Z,2.08
2023-02-12T10:21:18.120Z,1.80
2023-02-12T10:23:44.325Z,1.85
2023-02-12T10:26:10.543Z,1.60
2023-02-12T10:28:36.727Z,2.15
2023-02-12T10:31:03.035Z,1.90
2023-02-12T10:33:29.308Z,1.92
2023-02-12T10:35:55.694Z,3.80
2023-02-12T10:38:22.129Z,1.80
2023-02-12T10:40:48.308Z,2.13
2023-02-12T10:43:14.498Z,2.55
2023-02-12T10:45:40.706Z,1.92
2023-02-12T10:48:06.905Z,2.50
2023-02-12T10:50:33.069Z,2.65
2023-02-12T10:52:59.231Z,2.13
2023-02-12T10:55:25.615Z,2.55
2023-02-12T10:57:51.831Z,2.42
2023-02-12T11:00:17.988Z,1.65
2023-02-12T11:02:44.278Z,2.25
2023-02-12T11:05:10.509Z,1.75
2023-02-12T11:07:36.730Z,1.25
2023-02-12T11:10:02.896Z,1.67
2023-02-12T11:12:29.119Z,1.77
2023-02-12T11:14:55.348Z,1.70
2023-02-12T11:17:21.578Z,2.20
2023-02-12T11:19:47.736Z,1.92
2023-02-12T11:22:13.898Z,1.75
2023-02-12T11:24:40.067Z,1.88
2023-02-12T11:27:06.286Z,1.70
2023-02-12T11:29:32.500Z,1.27
2023-02-12T11:31:58.780Z,1.23
2023-02-12T11:34:24.957Z,1.75
2023-02-12T11:36:51.181Z,1.95
2023-02-12T11:39:17.418Z,1.63
2023-02-12T11:41:43.598Z,1.27
2023-02-12T11:44:09.790Z,1.45
2023-02-12T11:46:36.067Z,1.58
2023-02-12T11:49:02.241Z,1.50
2023-02-12T11:51:28.465Z,1.40
2023-02-12T11:53:54.683Z,1.90
2023-02-12T11:56:20.864Z,2.35
2023-02-12T11:58:47.042Z,1.65
2023-02-12T12:01:13.241Z,1.70
2023-02-12T12:03:39.488Z,2.15
2023-02-12T12:06:05.711Z,2.10
2023-02-12T12:08:31.867Z,2.53
2023-02-12T12:10:58.052Z,2.60
2023-02-12T12:13:25.928Z,2.42
2023-02-12T12:15:52.261Z,2.97
2023-02-12T12:18:18.424Z,2.85
2023-02-12T12:20:44.619Z,2.55
2023-02-12T12:23:10.788Z,2.67
2023-02-12T12:25:36.957Z,2.92
2023-02-12T12:28:03.255Z,3.40
2023-02-12T12:30:29.554Z,3.08
2023-02-12T12:32:55.786Z,3.40
2023-02-12T12:35:22.056Z,2.97
2023-02-12T12:37:48.225Z,2.85
2023-02-12T12:40:14.395Z,2.90
2023-02-12T12:42:40.611Z,3.63
2023-02-12T12:45:06.775Z,3.10
2023-02-12T12:47:32.934Z,3.50
2023-02-12T12:49:59.325Z,3.63
2023-02-12T12:52:25.504Z,3.70
2023-02-12T12:54:51.698Z,3.72
2023-02-12T12:57:17.882Z,4.30
2023-02-12T12:59:44.093Z,3.60
2023-02-12T13:02:10.292Z,3.75
2023-02-12T13:04:36.509Z,2.90
2023-02-12T13:07:02.694Z,2.80
2023-02-12T13:09:28.866Z,4.70
2023-02-12T13:11:55.070Z,3.70
2023-02-12T13:14:21.235Z,3.22
2023-02-12T13:16:47.412Z,3.80
2023-02-12T13:19:13.596Z,3.80
2023-02-12T13:21:39.782Z,3.45
2023-02-12T13:24:06.051Z,3.90
2023-02-12T13:26:32.223Z,3.65
2023-02-12T13:28:58.423Z,3.90
2023-02-12T13:31:33.100Z,3.38
2023-02-12T13:34:00.138Z,3.40
2023-02-12T13:36:26.325Z,4.22
2023-02-12T13:38:52.492Z,3.50
2023-02-12T13:41:18.729Z,4.68
2023-02-12T13:43:44.920Z,3.85
2023-02-12T13:46:11.135Z,3.88
2023-02-12T13:48:37.380Z,3.80
2023-02-12T13:51:03.628Z,4.85
2023-02-12T13:53:29.833Z,6.00
2023-02-12T13:55:56.286Z,4.55
2023-02-12T13:58:22.704Z,4.03
2023-02-12T14:00:48.904Z,4.22
2023-02-12T14:03:15.130Z,3.00
2023-02-12T14:05:41.367Z,4.18
2023-02-12T14:08:07.545Z,3.35
2023-02-12T14:10:33.725Z,2.63
2023-02-12T14:13:00.053Z,3.13
2023-02-12T14:15:26.317Z,2.92
2023-02-12T14:17:52.502Z,2.90
2023-02-12T14:20:18.769Z,3.05
2023-02-12T14:22:44.955Z,2.65
2023-02-12T14:25:11.184Z,2.00
2023-02-12T14:27:37.391Z,2.65
2023-02-12T14:30:03.645Z,2.90
2023-02-12T14:32:29.830Z,2.72
2023-02-12T14:34:55.994Z,2.67
2023-02-12T14:37:22.201Z,3.42
2023-02-12T14:39:48.395Z,2.60
2023-02-12T14:42:14.563Z,3.05
2023-02-12T14:44:40.770Z,2.47
2023-02-12T14:47:06.978Z,3.00
2023-02-12T14:49:33.193Z,3.47
2023-02-12T14:51:59.401Z,2.92
2023-02-12T14:54:25.603Z,3.28
2023-02-12T14:56:51.780Z,3.60
2023-02-12T14:59:17.999Z,3.15
2023-02-12T15:01:44.309Z,3.22
2023-02-12T15:04:10.596Z,2.88
2023-02-12T15:06:36.813Z,3.15
2023-02-12T15:09:02.987Z,2.83
2023-02-12T15:11:29.219Z,3.05
2023-02-12T15:13:55.407Z,2.80
2023-02-12T15:16:22.289Z,2.83
2023-02-12T15:18:48.592Z,3.35
2023-02-12T15:21:14.822Z,2.65
2023-02-12T15:23:40.988Z,3.40
2023-02-12T15:26:07.153Z,3.15
2023-02-12T15:28:33.362Z,3.65
2023-02-12T15:30:59.630Z,3.15
2023-02-12T15:33:25.892Z,4.28
2023-02-12T15:35:52.060Z,3.25
2023-02-12T15:38:18.252Z,3.08
2023-02-12T15:40:44.440Z,2.95
2023-02-12T15:43:10.592Z,3.75
2023-02-12T15:45:36.807Z,3.63
2023-02-12T15:48:03.062Z,2.80
2023-02-12T15:50:29.256Z,3.35
2023-02-12T15:52:55.434Z,3.50
2023-02-12T15:55:21.624Z,3.38
2023-02-12T15:57:47.822Z,3.78
2023-02-12T16:00:14.036Z,3.38
2023-02-12T16:02:40.262Z,3.38
2023-02-12T16:05:06.418Z,3.30
2023-02-12T16:07:32.653Z,3.47
2023-02-12T16:09:58.852Z,3.40
2023-02-12T16:12:25.064Z,2.80
2023-02-12T16:14:51.224Z,4.05
2023-02-12T16:17:17.451Z,4.18
2023-02-12T16:19:43.618Z,3.50
2023-02-12T16:22:09.833Z,3.15
2023-02-12T16:24:35.997Z,3.88
2023-02-12T16:27:02.197Z,3.63
2023-02-12T16:29:28.375Z,5.00
2023-02-12T16:31:54.641Z,4.38
2023-02-12T16:34:20.852Z,4.13
2023-02-12T16:36:47.084Z,4.57
2023-02-12T16:39:13.263Z,4.13
2023-02-12T16:41:39.418Z,4.95
2023-02-12T16:44:05.579Z,4.05
2023-02-12T16:46:31.778Z,4.90
2023-02-12T16:48:58.011Z,5.15
2023-02-12T16:51:24.271Z,4.78
2023-02-12T16:53:50.489Z,5.28
2023-02-12T16:56:16.714Z,5.35
2023-02-12T16:58:42.883Z,6.03
2023-02-12T17:01:09.178Z,5.05
2023-02-12T17:03:35.524Z,4.70
2023-02-12T17:06:02.902Z,4.78
2023-02-12T17:08:29.112Z,4.78
2023-02-12T17:10:55.327Z,5.03
2023-02-12T17:13:21.501Z,5.97
2023-02-12T17:15:47.763Z,5.78
2023-02-12T17:18:14.001Z,5.25
2023-02-12T17:20:40.176Z,5.53
2023-02-12T17:23:06.360Z,6.25
2023-02-12T17:25:32.528Z,6.15
2023-02-12T17:27:58.799Z,6.22
2023-02-12T17:30:25.032Z,5.38
2023-02-12T17:32:51.523Z,5.07
2023-02-12T17:35:17.751Z,5.50
2023-02-12T17:37:43.967Z,5.78
2023-02-12T17:40:10.201Z,6.00
2023-02-12T17:42:36.422Z,5.00
2023-02-12T17:45:02.652Z,5.47
2023-02-12T17:47:28.883Z,5.63
2023-02-12T17:49:55.145Z,5.55
2023-02-12T17:52:21.303Z,5.07
2023-02-12T17:54:47.510Z,5.15
2023-02-12T17:57:13.919Z,5.78
2023-02-12T17:59:40.147Z,6.30
2023-02-12T18:02:06.327Z,6.38
2023-02-12T18:04:32.581Z,6.03
2023-02-12T18:06:58.780Z,6.32
2023-02-12T18:09:24.945Z,7.22
2023-02-12T18:11:51.176Z,7.35
2023-02-12T18:14:17.342Z,7.05
2023-02-12T18:16:43.572Z,7.50
2023-02-12T18:19:09.807Z,8.20
2023-02-12T18:21:35.995Z,19.92
2023-02-12T18:24:02.216Z,8.55
2023-02-12T18:26:28.484Z,13.85
2023-02-12T18:28:54.665Z,6.97
2023-02-12T18:31:20.927Z,7.20
2023-02-12T18:33:47.247Z,7.57
2023-02-12T18:36:13.480Z,11.13
2023-02-12T18:38:39.689Z,9.85
2023-02-12T18:41:05.904Z,8.65
2023-02-12T18:43:32.063Z,11.73
2023-02-12T18:45:58.232Z,9.30
2023-02-12T18:48:24.499Z,9.80
2023-02-12T18:50:50.674Z,9.57
2023-02-12T18:53:16.832Z,9.38
2023-02-12T18:55:43.013Z,9.52
2023-02-12T18:58:09.232Z,9.48
2023-02-12T19:00:35.435Z,10.15
2023-02-12T19:03:01.597Z,9.23
2023-02-12T19:05:27.808Z,9.23
2023-02-12T19:07:54.049Z,9.77
2023-02-12T19:10:20.268Z,11.05
2023-02-12T19:12:46.557Z,9.73
2023-02-12T19:15:12.748Z,10.02
2023-02-12T19:17:38.945Z,11.80
2023-02-12T19:20:05.164Z,15.43
2023-02-12T19:22:31.366Z,10.43
2023-02-12T19:24:57.545Z,10.88
2023-02-12T19:27:23.750Z,11.20
2023-02-12T19:29:49.981Z,10.55
2023-02-12T19:32:16.239Z,10.45
2023-02-12T19:34:42.422Z,11.20
2023-02-12T19:37:10.820Z,12.00
2023-02-12T19:39:37.676Z,11.77
2023-02-12T19:42:03.888Z,11.68
2023-02-12T19:44:30.112Z,12.02
2023-02-12T19:46:56.355Z,11.65
2023-02-12T19:49:22.595Z,12.38
2023-02-12T19:51:48.822Z,11.95
2023-02-12T19:54:15.008Z,12.75
2023-02-12T19:56:41.174Z,12.77
2023-02-12T19:59:07.346Z,12.65
2023-02-12T20:01:33.523Z,12.75
2023-02-12T20:03:59.710Z,12.88
2023-02-12T20:06:25.917Z,57.95
2023-02-12T20:08:52.154Z,15.50
2023-02-12T20:11:18.325Z,12.07
2023-02-12T20:13:44.737Z,11.57
2023-02-12T20:16:10.985Z,10.75
2023-02-12T20:18:37.227Z,11.70
2023-02-12T20:21:03.456Z,10.00
2023-02-12T20:23:29.657Z,11.27
2023-02-12T20:25:55.913Z,24.13
2023-02-12T20:28:22.167Z,10.48
2023-02-12T20:30:48.383Z,10.70
2023-02-12T20:33:14.657Z,11.02
2023-02-12T20:35:40.832Z,10.75
2023-02-12T20:38:07.049Z,10.48
2023-02-12T20:40:33.284Z,9.45
2023-02-12T20:42:59.514Z,10.00
2023-02-12T20:45:25.730Z,10.57
2023-02-12T20:47:51.904Z,10.63
2023-02-12T20:50:18.058Z,9.55
2023-02-12T20:52:44.406Z,10.77
2023-02-12T20:55:10.564Z,10.38
2023-02-12T20:57:36.788Z,10.82
2023-02-12T21:00:02.947Z,11.23
2023-02-12T21:02:29.176Z,9.98
2023-02-12T21:04:55.385Z,9.88
2023-02-12T21:07:21.586Z,10.60
2023-02-12T21:09:47.744Z,10.85
2023-02-12T21:12:13.955Z,10.77
2023-02-12T21:14:40.181Z,10.70
2023-02-12T21:17:06.387Z,10.07
2023-02-12T21:19:32.541Z,10.23
2023-02-12T21:21:58.806Z,12.13
2023-02-12T21:24:25.030Z,10.15
2023-02-12T21:26:51.199Z,12.15
2023-02-12T21:29:17.355Z,10.27
2023-02-12T21:31:43.666Z,11.00
2023-02-12T21:34:09.908Z,10.73
2023-02-12T21:36:36.075Z,10.70
2023-02-12T21:39:02.269Z,9.85
2023-02-12T21:41:28.433Z,10.15
2023-02-12T21:43:54.608Z,9.93
2023-02-12T21:46:20.971Z,10.13
2023-02-12T21:48:47.198Z,10.80
2023-02-12T21:51:13.415Z,10.80
2023-02-12T21:53:39.646Z,10.85
2023-02-12T21:56:05.886Z,10.90
2023-02-12T21:58:32.107Z,11.05
2023-02-12T22:00:58.726Z,11.18
2023-02-12T22:03:25.186Z,11.45
2023-02-12T22:05:51.396Z,10.35
2023-02-12T22:08:17.567Z,9.85
2023-02-12T22:10:43.787Z,11.02
2023-02-12T22:13:09.961Z,10.68
2023-02-12T22:15:36.341Z,9.88
2023-02-12T22:18:02.511Z,13.32
2023-02-12T22:20:28.713Z,9.70
2023-02-12T22:22:54.888Z,10.60
2023-02-12T22:25:21.068Z,10.27
2023-02-12T22:27:47.286Z,10.55
2023-02-12T22:30:13.515Z,11.10
2023-02-12T22:32:39.781Z,10.48
2023-02-12T22:35:06.134Z,9.65
2023-02-12T22:37:32.338Z,11.15
2023-02-12T22:39:58.557Z,10.75
2023-02-12T22:42:24.742Z,10.15
2023-02-12T22:44:50.933Z,10.65
2023-02-12T22:47:17.148Z,10.95
2023-02-12T22:49:43.354Z,9.57
2023-02-12T22:52:09.509Z,10.88
2023-02-12T22:54:35.679Z,10.90
2023-02-12T22:57:01.886Z,9.98
2023-02-12T22:59:28.095Z,8.65
2023-02-12T23:01:54.318Z,10.38
2023-02-12T23:04:20.625Z,10.55
2023-02-12T23:06:46.836Z,11.63
2023-02-12T23:09:13.055Z,11.10
2023-02-12T23:11:39.228Z,10.88
2023-02-12T23:14:05.372Z,10.75
2023-02-12T23:16:31.615Z,9.68
2023-02-12T23:18:57.884Z,9.55
2023-02-12T23:21:24.104Z,9.95
2023-02-12T23:23:50.322Z,9.73
2023-02-12T23:26:16.537Z,10.70
2023-02-12T23:28:42.740Z,9.32
2023-02-12T23:31:09.072Z,9.80
2023-02-12T23:33:35.375Z,9.40
2023-02-12T23:36:01.547Z,9.18
2023-02-12T23:38:27.746Z,8.50
2023-02-12T23:40:53.922Z,9.38
2023-02-12T23:43:20.133Z,9.48
2023-02-12T23:45:46.383Z,9.40
2023-02-12T23:48:12.560Z,9.20
2023-02-12T23:50:38.776Z,8.50
2023-02-12T23:53:04.941Z,9.25
2023-02-12T23:55:31.141Z,8.95
2023-02-12T23:57:57.305Z,10.45
